Weather observations for the past three days for
La Crosse - La Crosse Regional Airport
| Date | Time (cdt) | Wind (kph) | Vis. (km) | Weather | Sky Cond. | Temperature (ºC) | Relative Humidity | Wind Chill (°C) | Heat Index (°C) | Pressure | Precipitation (cm) | ||||||
|---|---|---|---|---|---|---|---|---|---|---|---|---|---|---|---|---|---|
| Air | Dwpt | 6 hour | altimeter (cm) | sea level (mb) | 1 hr | 3 hr | 6 hr | ||||||||||
| Max. | Min. | ||||||||||||||||
| 07 | 09:53 | N 11 | 16.09 | Mostly Cloudy | FEW055 SCT070 BKN085 | 6.7 | -0.6 | 60% | 5 | 76.02 | 1014.2 | ||||||
| 07 | 08:53 | Calm | 16.09 | Overcast | FEW049 OVC065 | 5.6 | -0.6 | 65% | 76.05 | 1014.4 | |||||||
| 07 | 07:53 | SE 6 | 16.09 | Overcast | FEW050 BKN070 OVC085 | 3.9 | -1.1 | 70% | 76.02 | 1014.3 | |||||||
| 07 | 06:53 | SE 7 | 16.09 | Partly Cloudy | FEW075 SCT095 | 0.6 | -1.7 | 1.7 | -1.1 | 85% | -1 | 76.05 | 1014.5 | ||||
| 07 | 05:53 | SE 7 | 16.09 | Fair | CLR | -1.1 | -2.8 | 88% | -3 | 76.02 | 1014.4 | ||||||
| 07 | 04:53 | SE 7 | 16.09 | Fair | CLR | 0 | -1.7 | 88% | -2 | 76.05 | 1014.6 | ||||||
| 07 | 03:53 | S 11 | 16.09 | A Few Clouds | FEW110 | 1.7 | -0.6 | 85% | -1 | 76.07 | 1014.9 | ||||||
| 07 | 02:53 | S 11 | 16.09 | Overcast | BKN080 OVC100 | 0.6 | -1.7 | 85% | -2 | 76.1 | 1015.2 | ||||||
| 07 | 01:53 | SE 9 | 16.09 | A Few Clouds | FEW080 | 0.6 | -2.8 | 78% | -2 | 76.1 | 1015.4 | ||||||
| 07 | 00:53 | SE 7 | 16.09 | Mostly Cloudy | BKN085 | 0.6 | -2.8 | 7.8 | 0.6 | 78% | -1 | 76.15 | 1015.9 | ||||
| 06 | 23:53 | S 6 | 16.09 | Fair | CLR | 1.1 | -2.2 | 79% | 76.17 | 1016.2 | |||||||
| 06 | 21:53 | Calm | 16.09 | A Few Clouds | FEW060 | 2.2 | -3.9 | 64% | 76.2 | 1016.8 | |||||||
| 06 | 20:53 | N 7 | 16.09 | Fair | CLR | 3.9 | -4.4 | 55% | 2 | 76.17 | 1016.4 | ||||||
| 06 | 19:53 | NW 9 | 16.09 | Mostly Cloudy | BKN055 | 6.1 | -4.4 | 47% | 4 | 76.17 | 1016.3 | ||||||
| 06 | 18:53 | NW 17 | 16.09 | Overcast | OVC055 | 7.2 | -5 | 7.8 | 7.2 | 42% | 5 | 76.17 | 1016.2 | ||||
| 06 | 17:53 | N 20 | 16.09 | Overcast | OVC055 | 7.2 | -5 | 42% | 4 | 76.17 | 1016.5 | ||||||
| 06 | 16:53 | NW 24 G 39 | 16.09 | Overcast | OVC055 | 7.8 | -5 | 40% | 5 | 76.2 | 1016.5 | ||||||
| 06 | 15:53 | NW 20 G 33 | 16.09 | Overcast | OVC055 | 7 | -6 | 39% | 4 | 76.2 | 0.0 | ||||||
| 06 | 14:53 | NW 28 | 16.09 | Overcast | OVC055 | 7.8 | -5.6 | 38% | 4 | 76.2 | 1016.6 | ||||||
| 06 | 13:53 | W 22 | 16.09 | Overcast | OVC060 | 7.8 | -5.6 | 38% | 5 | 76.2 | 1016.5 | ||||||
| 06 | 12:53 | NW 17 | 16.09 | Overcast | OVC055 | 7.8 | -4.4 | 8.3 | 3.3 | 42% | 5 | 76.2 | 1016.4 | ||||
| 06 | 11:53 | NW 20 | 16.09 | Overcast | OVC055 | 7.8 | -5 | 40% | 5 | 76.2 | 1016.5 | ||||||
| 06 | 10:53 | NW 13 G 35 | 16.09 | Mostly Cloudy | BKN048 | 7.2 | -5 | 42% | 5 | 76.23 | 1016.7 | ||||||
| 06 | 09:53 | NW 20 | 16.09 | Overcast | OVC046 | 6.1 | -5 | 45% | 3 | 76.23 | 1016.8 | ||||||
| 06 | 08:53 | N 17 | 16.09 | Fair | CLR | 5.6 | -5.6 | 45% | 3 | 76.17 | 1016.0 | ||||||
| 06 | 07:53 | N 20 | 16.09 | Fair | CLR | 4.4 | -5 | 51% | 1 | 76.15 | 1015.7 | ||||||
| 06 | 06:53 | N 19 | 16.09 | Fair | CLR | 3.3 | -3.9 | 6.1 | 1.7 | 60% | -1 | 76.1 | 1015.0 | ||||
| 06 | 05:53 | N 15 | 16.09 | Fair | CLR | 1.7 | -3.9 | 67% | -2 | 76.05 | 1014.5 | ||||||
| 06 | 04:53 | N 15 | 16.09 | Fair | CLR | 3.3 | -3.3 | 62% | 0 | 76.02 | 1014.1 | ||||||
| 06 | 03:53 | N 15 | 16.09 | Fair | CLR | 3.3 | -2.8 | 65% | 0 | 75.97 | 1013.5 | ||||||
| 06 | 02:53 | N 13 | 16.09 | Fair | CLR | 4.4 | -3.3 | 58% | 2 | 75.97 | 1013.2 | ||||||
| 06 | 01:53 | N 13 | 16.09 | Fair | CLR | 4.4 | -2.8 | 60% | 2 | 75.92 | 1012.7 | ||||||
| 06 | 00:53 | NW 13 | 16.09 | A Few Clouds | FEW080 | 5.6 | -2.8 | 10.6 | 5.6 | 55% | 3 | 75.92 | 1012.4 | ||||
| 05 | 23:53 | NW 11 | 16.09 | Mostly Cloudy | BKN080 | 7.2 | -3.3 | 48% | 5 | 75.87 | 1011.9 | ||||||
| 05 | 21:53 | NW 11 | 16.09 | Overcast | OVC085 | 8.3 | -3.3 | 44% | 7 | 75.84 | 1011.6 | ||||||
| 05 | 20:53 | N 13 | 16.09 | Mostly Cloudy | BKN085 | 8.9 | -3.9 | 41% | 7 | 75.82 | 1011.1 | ||||||
| 05 | 19:53 | N 20 | 16.09 | Overcast | OVC085 | 10 | -5 | 35% | 8 | 75.77 | 1010.6 | ||||||
| 05 | 18:53 | NW 22 | 16.09 | Overcast | OVC085 | 10.6 | -5 | 13.3 | 10.6 | 33% | 75.74 | 1010.2 | |||||
| 05 | 17:53 | NW 24 | 16.09 | Overcast | OVC080 | 11.1 | -5.6 | 31% | 75.74 | 1010.3 | |||||||
| 05 | 16:53 | N 20 | 16.09 | Overcast | OVC080 | 11.7 | -5.6 | 30% | 75.74 | 1010.2 | |||||||
| 05 | 15:53 | NW 28 G 39 | 16.09 | Overcast | OVC080 | 12.2 | -5 | 30% | 75.74 | 1010.0 | |||||||
| 05 | 14:53 | NW 26 | 16.09 | Overcast | OVC080 | 12 | -6 | 28% | 75.77 | 0.0 | |||||||
| 05 | 13:53 | NW 28 G 41 | 16.09 | Overcast | OVC075 | 11.7 | -5.6 | 30% | 75.77 | 1010.4 | |||||||
| 05 | 12:53 | NW 26 G 37 | 16.09 | Mostly Cloudy | BKN070 | 11.1 | -6.1 | 11.7 | 6.1 | 30% | 75.74 | 1010.1 | |||||
| 05 | 11:53 | N 28 | 16.09 | A Few Clouds | FEW070 | 11.1 | -6.1 | 30% | 75.77 | 1010.3 | |||||||
| 05 | 10:53 | N 22 | 16.09 | Fair | CLR | 10.6 | -7.2 | 28% | 75.77 | 1010.3 | |||||||
| 05 | 09:53 | N 19 | 16.09 | Fair | CLR | 9.4 | -6.1 | 33% | 7 | 75.77 | 1010.1 | ||||||
| 05 | 08:53 | NW 22 | 16.09 | Fair | CLR | 8.3 | -3.9 | 42% | 5 | 75.77 | 1010.1 | ||||||
| 05 | 07:53 | N 20 | 16.09 | Fair | CLR | 7.8 | -3.3 | 46% | 5 | 75.74 | 1009.9 | ||||||
| 05 | 06:53 | W 15 | 16.09 | Fair | CLR | 6.1 | -3.3 | 8.9 | 5 | 51% | 3 | 75.67 | 1008.7 | ||||
| 05 | 05:53 | W 15 | 16.09 | Fair | CLR | 5 | -3.3 | 55% | 2 | 75.59 | 1007.9 | ||||||
| 05 | 04:53 | NW 19 | 16.09 | Fair | CLR | 6.1 | -3.3 | 51% | 3 | 75.54 | 1007.1 | ||||||
| 05 | 03:53 | NW 20 | 16.09 | Fair | CLR | 7.2 | -3.9 | 46% | 4 | 75.49 | 1006.4 | ||||||
| 05 | 02:53 | NW 17 | 16.09 | Fair | CLR | 7.8 | -2.8 | 47% | 5 | 75.44 | 1005.5 | ||||||
| 05 | 01:53 | NW 15 | 16.09 | Fair | CLR | 8.3 | -3.3 | 44% | 6 | 75.44 | 1005.4 | ||||||
| 05 | 00:53 | N 22 | 16.09 | Fair | CLR | 8.9 | -4.4 | 16.1 | 8.9 | 39% | 6 | 75.46 | 1005.6 | ||||
| 04 | 23:53 | N 30 G 43 | 16.09 | Fair | CLR | 9.4 | -2.8 | 43% | 6 | 75.41 | 1005.0 | ||||||
| 04 | 22:53 | NW 28 | 16.09 | Fair | CLR | 11.1 | -2.2 | 40% | 75.34 | 1003.8 | |||||||
| 04 | 21:53 | N 39 G 50 | 16.09 | Fair and Breezy | CLR | 12.2 | -1.1 | 40% | 75.29 | 1003.2 | |||||||
| 04 | 20:53 | NW 28 G 50 | 16.09 | Fair | CLR | 13.3 | -0.6 | 39% | 75.16 | 1001.7 | |||||||
| 04 | 19:53 | NW 26 G 52 | 16.09 | Fair | CLR | 15 | -1.1 | 33% | 75.08 | 1000.6 | |||||||
| 04 | 18:53 | NW 28 | 16.09 | Fair | CLR | 16.1 | -0.6 | 23.3 | 16.1 | 32% | 75.03 | 1000.1 | |||||
| 04 | 17:53 | NW 35 G 54 | 16.09 | Fair and Breezy | CLR | 18.3 | -3.9 | 22% | 74.98 | 999.3 | |||||||
| 04 | 16:53 | NW 31 G 44 | 16.09 | A Few Clouds | FEW110 | 19.4 | -2.2 | 23% | 74.93 | 998.7 | |||||||
| 04 | 15:53 | NW 33 G 52 | 16.09 | Fair and Breezy | CLR | 20 | 0 | 26% | 74.9 | 998.4 | |||||||
| 04 | 14:53 | NW 31 | 16.09 | Fair | CLR | 21.7 | 1.1 | 26% | 74.85 | 997.5 | |||||||
| 04 | 13:53 | NW 28 G 41 | 16.09 | Fair | CLR | 23.3 | 3.9 | 28% | 74.8 | 996.8 | |||||||
| 04 | 13:13 | NW 28 G 41 | 16.09 | A Few Clouds | FEW100 | 22 | 6 | 36% | 74.78 | 0.0 | |||||||
| 04 | 11:53 | W 33 G 50 | 16.09 | Light Rain and Breezy | CLR | 22.2 | 5 | 33% | 74.78 | 996.5 | |||||||
| 04 | 10:53 | W 24 G 48 | 16.09 | A Few Clouds | FEW110 | 22.2 | 4.4 | 31% | 74.78 | 996.4 | |||||||
| Date | Time (cdt) | Wind (kph) | Vis. (km) | Weather | Sky Cond. | Air | Dwpt | Max. | Min. | Relative Humidity | Wind Chill (°C) | Heat Index (°C) | altimeter (cm) | sea level (mb) | 1 hr | 3 hr | 6 hr |
| 6 hour | |||||||||||||||||
| Temperature (ºC) | Pressure | Precipitation (cm) | |||||||||||||||